createdAt,value
2019-05-11T00:02:13.557Z,13.60
2019-05-11T00:04:43.831Z,13.70
2019-05-11T00:07:14.123Z,13.70
2019-05-11T00:09:57.413Z,13.70
2019-05-11T00:12:16.316Z,13.70
2019-05-11T00:14:47.565Z,13.60
2019-05-11T00:17:17.851Z,13.70
2019-05-11T00:19:48.108Z,13.50
2019-05-11T00:22:18.394Z,13.60
2019-05-11T00:24:48.663Z,13.50
2019-05-11T00:27:19.022Z,13.50
2019-05-11T00:29:49.386Z,13.60
2019-05-11T00:32:22.772Z,13.50
2019-05-11T00:34:51.561Z,13.60
2019-05-11T00:37:21.878Z,13.60
2019-05-11T00:39:52.140Z,13.60
2019-05-11T00:42:22.456Z,13.50
2019-05-11T00:44:52.727Z,13.60
2019-05-11T00:47:23.027Z,13.50
2019-05-11T00:49:53.288Z,13.60
2019-05-11T00:52:23.597Z,13.70
2019-05-11T00:54:53.909Z,13.60
2019-05-11T00:57:24.212Z,13.60
2019-05-11T00:59:54.511Z,13.70
2019-05-11T01:02:24.837Z,13.70
2019-05-11T01:04:56.081Z,13.50
2019-05-11T01:07:26.361Z,13.40
2019-05-11T01:09:56.659Z,13.50
2019-05-11T01:12:26.933Z,13.40
2019-05-11T01:14:57.245Z,13.30
2019-05-11T01:17:27.508Z,13.30
2019-05-11T01:19:57.812Z,13.30
2019-05-11T01:22:28.065Z,13.30
2019-05-11T01:24:58.367Z,13.20
2019-05-11T01:27:28.667Z,13.20
2019-05-11T01:29:58.951Z,13.20
2019-05-11T01:32:29.272Z,13.20
2019-05-11T01:34:59.553Z,13.30
2019-05-11T01:37:29.888Z,13.20
2019-05-11T01:40:00.183Z,13.20
2019-05-11T01:42:30.443Z,13.30
2019-05-11T01:45:00.725Z,13.30
2019-05-11T01:47:31.000Z,13.30
2019-05-11T01:50:01.327Z,13.30
2019-05-11T01:52:31.681Z,13.40
2019-05-11T01:55:01.964Z,13.40
2019-05-11T01:57:32.301Z,13.50
2019-05-11T02:00:02.626Z,13.50
2019-05-11T02:02:32.941Z,13.40
2019-05-11T02:05:20.835Z,13.20
2019-05-11T02:07:51.142Z,13.20
2019-05-11T02:10:21.443Z,13.20
2019-05-11T02:12:51.734Z,13.20
2019-05-11T02:15:22.034Z,13.20
2019-05-11T02:17:52.326Z,13.10
2019-05-11T02:20:22.619Z,13.00
2019-05-11T02:22:53.070Z,12.90
2019-05-11T02:25:23.437Z,12.90
2019-05-11T02:27:53.918Z,13.00
2019-05-11T02:30:24.446Z,13.00
2019-05-11T02:32:54.823Z,12.90
2019-05-11T02:35:25.151Z,13.00
2019-05-11T02:37:55.436Z,12.90
2019-05-11T02:40:26.045Z,12.80
2019-05-11T02:42:56.317Z,12.80
2019-05-11T02:45:39.741Z,12.70
2019-05-11T02:48:12.368Z,12.70
2019-05-11T02:50:44.673Z,12.50
2019-05-11T02:53:15.522Z,12.50
2019-05-11T02:55:47.391Z,12.40
2019-05-11T02:58:17.672Z,12.50
2019-05-11T03:00:48.049Z,12.50
2019-05-11T03:03:18.360Z,12.40
2019-05-11T03:05:48.637Z,12.40
2019-05-11T03:08:18.927Z,12.30
2019-05-11T03:10:49.243Z,12.40
2019-05-11T03:13:19.501Z,12.40
2019-05-11T03:15:49.793Z,12.40
2019-05-11T03:18:20.123Z,12.30
2019-05-11T03:20:50.412Z,12.20
2019-05-11T03:23:20.717Z,12.20
2019-05-11T03:25:51.000Z,12.30
2019-05-11T03:28:21.281Z,12.30
2019-05-11T03:30:51.601Z,12.40
2019-05-11T03:33:21.865Z,12.40
2019-05-11T03:35:52.189Z,12.30
2019-05-11T03:38:22.493Z,12.40
2019-05-11T03:40:52.739Z,12.30
2019-05-11T03:43:23.027Z,12.40
2019-05-11T03:45:53.286Z,12.40
2019-05-11T03:48:23.569Z,12.40
2019-05-11T03:50:53.829Z,12.40
2019-05-11T03:53:24.120Z,12.40
2019-05-11T03:55:54.407Z,12.50
2019-05-11T03:58:26.253Z,12.30
2019-05-11T04:00:56.714Z,12.30
2019-05-11T04:03:27.020Z,12.20
2019-05-11T04:05:57.302Z,12.30
2019-05-11T04:08:27.597Z,12.40
2019-05-11T04:10:57.861Z,12.40
2019-05-11T04:13:28.208Z,12.40
2019-05-11T04:15:58.497Z,12.30
2019-05-11T04:18:28.787Z,12.30
2019-05-11T04:20:59.061Z,12.30
2019-05-11T04:23:29.400Z,12.40
2019-05-11T04:25:59.732Z,12.30
2019-05-11T04:28:30.043Z,12.30
2019-05-11T04:31:00.335Z,12.30
2019-05-11T04:33:33.202Z,12.40
2019-05-11T04:36:02.586Z,12.50
2019-05-11T04:38:32.900Z,12.50
2019-05-11T04:41:03.190Z,12.50
2019-05-11T04:43:33.576Z,12.50
2019-05-11T04:46:03.856Z,12.60
2019-05-11T04:48:34.134Z,12.70
2019-05-11T04:51:04.442Z,12.60
2019-05-11T04:53:34.741Z,12.60
2019-05-11T04:56:05.014Z,12.50
2019-05-11T04:58:35.316Z,12.50
2019-05-11T05:01:05.639Z,12.60
2019-05-11T05:03:40.879Z,12.60
2019-05-11T05:06:22.333Z,12.60
2019-05-11T05:08:40.864Z,12.70
2019-05-11T05:11:11.153Z,12.60
2019-05-11T05:13:41.415Z,12.70
2019-05-11T05:16:11.757Z,12.60
2019-05-11T05:18:42.047Z,12.60
2019-05-11T05:21:12.369Z,12.70
2019-05-11T05:23:42.622Z,12.60
2019-05-11T05:26:12.908Z,12.70
2019-05-11T05:28:45.755Z,12.80
2019-05-11T05:31:15.292Z,12.80
2019-05-11T05:33:45.560Z,12.70
2019-05-11T05:36:15.970Z,12.70
2019-05-11T05:38:47.921Z,12.70
2019-05-11T05:41:18.403Z,12.70
2019-05-11T05:43:48.876Z,12.70
2019-05-11T05:46:19.293Z,12.70
2019-05-11T05:48:49.498Z,12.80
2019-05-11T05:51:19.882Z,12.70
2019-05-11T05:53:50.902Z,12.70
2019-05-11T05:56:21.275Z,12.80
2019-05-11T05:58:52.022Z,12.70
2019-05-11T06:01:22.510Z,12.70
2019-05-11T06:03:53.353Z,12.80
2019-05-11T06:06:23.669Z,12.80
2019-05-11T06:08:53.920Z,12.80
2019-05-11T06:11:25.538Z,12.90
2019-05-11T06:13:56.130Z,12.90
2019-05-11T06:16:26.403Z,12.90
2019-05-11T06:18:56.759Z,12.90
2019-05-11T06:21:27.069Z,12.90
2019-05-11T06:24:05.410Z,12.80
2019-05-11T06:26:30.280Z,12.80
2019-05-11T06:29:00.601Z,12.80
2019-05-11T06:31:32.922Z,12.90
2019-05-11T06:34:03.798Z,12.90
2019-05-11T06:36:34.139Z,12.90
2019-05-11T06:39:07.631Z,13.00
2019-05-11T06:41:37.982Z,13.10
2019-05-11T06:44:08.264Z,13.10
2019-05-11T06:46:38.637Z,13.10
2019-05-11T06:49:09.000Z,13.10
2019-05-11T06:51:40.622Z,13.10
2019-05-11T06:54:12.900Z,13.10
2019-05-11T06:56:44.153Z,13.10
2019-05-11T06:59:14.423Z,13.20
2019-05-11T07:01:44.732Z,13.10
2019-05-11T07:04:15.110Z,13.10
2019-05-11T07:06:45.500Z,13.10
2019-05-11T07:09:15.800Z,13.20
2019-05-11T07:11:46.079Z,13.20
2019-05-11T07:14:20.415Z,13.20
2019-05-11T07:16:48.275Z,13.10
2019-05-11T07:19:18.545Z,13.30
2019-05-11T07:21:48.999Z,13.40
2019-05-11T07:24:19.690Z,13.50
2019-05-11T07:26:50.035Z,13.40
2019-05-11T07:29:20.321Z,13.40
2019-05-11T07:31:50.965Z,13.50
2019-05-11T07:34:21.304Z,13.50
2019-05-11T07:36:51.593Z,13.50
2019-05-11T07:39:21.899Z,13.50
2019-05-11T07:41:52.157Z,13.50
2019-05-11T07:44:35.011Z,13.50
2019-05-11T07:46:54.327Z,13.50
2019-05-11T07:49:24.614Z,13.50
2019-05-11T07:51:54.890Z,13.60
2019-05-11T07:54:25.185Z,13.60
2019-05-11T07:56:58.206Z,13.50
2019-05-11T07:59:28.985Z,13.30
2019-05-11T08:01:59.365Z,13.20
2019-05-11T08:04:29.688Z,13.30
2019-05-11T08:06:59.980Z,13.30
2019-05-11T08:09:30.281Z,13.30
2019-05-11T08:12:00.544Z,13.40
2019-05-11T08:14:30.858Z,13.50
2019-05-11T08:17:01.205Z,13.50
2019-05-11T08:19:31.498Z,13.20
2019-05-11T08:22:01.790Z,12.90
2019-05-11T08:24:32.160Z,13.10
2019-05-11T08:27:02.437Z,13.40
2019-05-11T08:29:32.728Z,13.50
2019-05-11T08:32:03.049Z,13.60
2019-05-11T08:34:33.354Z,13.50
2019-05-11T08:37:04.599Z,13.40
2019-05-11T08:39:34.894Z,13.40
2019-05-11T08:42:05.167Z,13.50
2019-05-11T08:44:37.843Z,13.60
2019-05-11T08:47:08.513Z,13.60
2019-05-11T08:49:38.935Z,13.70
2019-05-11T08:52:09.194Z,13.70
2019-05-11T08:54:39.468Z,13.80
2019-05-11T08:57:09.723Z,13.80
2019-05-11T08:59:40.026Z,13.50
2019-05-11T09:02:10.274Z,13.60
2019-05-11T09:04:42.081Z,13.90
2019-05-11T09:07:13.461Z,13.90
2019-05-11T09:09:43.750Z,13.90
2019-05-11T09:12:14.101Z,13.90
2019-05-11T09:14:47.708Z,13.70
2019-05-11T09:17:18.253Z,13.80
2019-05-11T09:19:48.607Z,14.00
2019-05-11T09:22:18.937Z,14.00
2019-05-11T09:24:49.232Z,13.80
2019-05-11T09:27:19.483Z,13.90
2019-05-11T09:29:49.781Z,13.90
2019-05-11T09:32:21.021Z,13.90
2019-05-11T09:34:51.318Z,14.00
2019-05-11T09:37:21.620Z,14.00
2019-05-11T09:39:51.939Z,14.20
2019-05-11T09:42:22.226Z,14.20
2019-05-11T09:44:52.500Z,14.30
2019-05-11T09:47:22.818Z,14.50
2019-05-11T09:49:53.106Z,14.50
2019-05-11T09:52:23.376Z,14.50
2019-05-11T09:54:53.672Z,14.60
2019-05-11T09:57:23.930Z,14.50
2019-05-11T09:59:54.233Z,14.50
2019-05-11T10:02:24.514Z,14.50
2019-05-11T10:04:54.850Z,14.20
2019-05-11T10:07:25.104Z,14.30
2019-05-11T10:09:55.445Z,14.20
2019-05-11T10:12:25.817Z,14.20
2019-05-11T10:14:56.097Z,14.20
2019-05-11T10:17:28.649Z,14.20
2019-05-11T10:19:58.463Z,14.30
2019-05-11T10:22:28.696Z,14.30
2019-05-11T10:24:58.992Z,14.60
2019-05-11T10:27:29.332Z,14.50
2019-05-11T10:29:59.661Z,14.60
2019-05-11T10:32:29.950Z,14.50
2019-05-11T10:35:00.336Z,14.50
2019-05-11T10:37:30.601Z,14.50
2019-05-11T10:40:00.916Z,14.50
2019-05-11T10:42:31.188Z,14.40
2019-05-11T10:45:01.544Z,14.40
2019-05-11T10:47:32.656Z,14.50
2019-05-11T10:50:02.988Z,14.40
2019-05-11T10:52:33.379Z,14.20
2019-05-11T10:55:03.681Z,14.30
2019-05-11T10:57:34.044Z,14.20
2019-05-11T11:00:05.484Z,14.20
2019-05-11T11:02:38.228Z,14.20
2019-05-11T11:05:08.383Z,14.20
2019-05-11T11:07:38.745Z,14.20
2019-05-11T11:10:09.305Z,14.10
2019-05-11T11:12:39.656Z,14.00
2019-05-11T11:15:11.117Z,14.00
2019-05-11T11:17:41.463Z,14.00
2019-05-11T11:20:12.172Z,13.90
2019-05-11T11:22:44.243Z,13.90
2019-05-11T11:25:14.569Z,13.90
2019-05-11T11:27:44.907Z,13.70
2019-05-11T11:30:17.981Z,13.70
2019-05-11T11:32:48.234Z,13.80
2019-05-11T11:35:18.953Z,13.70
2019-05-11T11:37:50.323Z,13.60
2019-05-11T11:40:20.584Z,13.50
2019-05-11T11:42:50.881Z,13.40
2019-05-11T11:45:23.568Z,13.40
2019-05-11T11:47:54.615Z,13.30
2019-05-11T11:50:28.490Z,13.20
2019-05-11T11:52:59.382Z,13.20
2019-05-11T11:55:30.004Z,13.20
2019-05-11T11:58:00.852Z,13.10
2019-05-11T12:00:31.651Z,13.00
2019-05-11T12:03:01.946Z,13.00
2019-05-11T12:05:32.238Z,13.00
2019-05-11T12:08:02.492Z,13.00
2019-05-11T12:10:32.785Z,13.10
2019-05-11T12:13:03.737Z,13.10
2019-05-11T12:15:34.021Z,13.00
2019-05-11T12:18:05.128Z,12.90
2019-05-11T12:20:36.194Z,13.00
2019-05-11T12:23:08.788Z,12.90
2019-05-11T12:25:40.646Z,12.90
2019-05-11T12:28:12.339Z,13.00
2019-05-11T12:30:42.653Z,13.00
2019-05-11T12:33:18.543Z,13.00
2019-05-11T12:35:58.655Z,12.90
2019-05-11T12:38:45.474Z,13.00
2019-05-11T12:41:24.452Z,13.00
2019-05-11T12:43:55.081Z,13.10
2019-05-11T12:46:27.674Z,13.20
2019-05-11T12:48:59.245Z,13.20
2019-05-11T12:51:29.739Z,13.20
2019-05-11T12:54:00.041Z,13.30
2019-05-11T12:56:30.325Z,13.30
2019-05-11T12:59:00.609Z,13.20
2019-05-11T13:01:30.890Z,13.20
2019-05-11T13:04:01.226Z,13.20
2019-05-11T13:06:31.485Z,13.20
2019-05-11T13:09:01.775Z,13.20
2019-05-11T13:11:32.218Z,13.30
2019-05-11T13:14:02.524Z,13.20
2019-05-11T13:16:32.837Z,13.30
2019-05-11T13:19:03.118Z,13.10
2019-05-11T13:21:33.387Z,13.00
2019-05-11T13:24:03.681Z,12.90
2019-05-11T13:26:33.958Z,13.10
2019-05-11T13:29:04.235Z,13.20
2019-05-11T13:31:34.503Z,13.20
2019-05-11T13:34:04.818Z,13.00
2019-05-11T13:36:35.148Z,12.80
2019-05-11T13:39:08.872Z,13.00
2019-05-11T13:41:39.340Z,12.80
2019-05-11T13:44:09.630Z,12.90
2019-05-11T13:46:39.910Z,12.90
2019-05-11T13:49:10.302Z,13.10
2019-05-11T13:51:40.657Z,13.00
2019-05-11T13:54:11.340Z,12.90
2019-05-11T13:56:42.880Z,12.80
2019-05-11T13:59:14.202Z,12.80
2019-05-11T14:01:44.781Z,12.90
2019-05-11T14:04:15.090Z,12.80
2019-05-11T14:06:47.964Z,12.80
2019-05-11T14:09:18.621Z,12.80
2019-05-11T14:11:49.439Z,12.70
2019-05-11T14:14:19.689Z,12.60
2019-05-11T14:16:50.487Z,12.70
2019-05-11T14:19:21.965Z,12.80
2019-05-11T14:21:52.274Z,12.90
2019-05-11T14:24:22.605Z,12.90
2019-05-11T14:26:52.919Z,13.00
2019-05-11T14:29:23.233Z,13.00
2019-05-11T14:31:54.079Z,13.10
2019-05-11T14:34:24.352Z,13.20
2019-05-11T14:36:54.692Z,13.00
2019-05-11T14:39:25.021Z,12.80
2019-05-11T14:41:55.481Z,12.80
2019-05-11T14:44:28.343Z,12.70
2019-05-11T14:46:59.230Z,12.80
2019-05-11T14:49:29.659Z,12.70
2019-05-11T14:51:59.984Z,12.50
2019-05-11T14:54:30.382Z,12.60
2019-05-11T14:57:00.712Z,12.60
2019-05-11T14:59:30.958Z,12.60
2019-05-11T15:02:03.984Z,12.50
2019-05-11T15:04:34.471Z,12.60
2019-05-11T15:07:05.830Z,12.60
2019-05-11T15:09:37.668Z,12.60
2019-05-11T15:12:08.659Z,12.60
2019-05-11T15:14:38.956Z,12.60
2019-05-11T15:17:09.290Z,12.70
2019-05-11T15:19:39.923Z,12.60
2019-05-11T15:22:10.431Z,12.50
2019-05-11T15:24:40.829Z,12.70
2019-05-11T15:27:11.113Z,12.40
2019-05-11T15:29:41.380Z,12.60
2019-05-11T15:32:11.862Z,12.70
2019-05-11T15:34:42.160Z,12.70
2019-05-11T15:37:12.777Z,12.80
2019-05-11T15:39:43.045Z,12.80
2019-05-11T15:42:16.956Z,12.80
2019-05-11T15:44:45.470Z,12.60
2019-05-11T15:47:15.774Z,12.70
2019-05-11T15:49:48.426Z,12.60
2019-05-11T15:52:18.843Z,12.70
2019-05-11T15:54:51.177Z,12.60
2019-05-11T15:57:21.578Z,12.70
2019-05-11T15:59:51.841Z,12.80
2019-05-11T16:02:22.140Z,12.70
2019-05-11T16:04:52.449Z,12.80
2019-05-11T16:07:22.739Z,12.80
2019-05-11T16:09:53.043Z,12.90
2019-05-11T16:12:23.319Z,12.90
2019-05-11T16:14:53.591Z,13.00
2019-05-11T16:17:23.901Z,12.90
2019-05-11T16:19:54.155Z,13.00
2019-05-11T16:22:24.460Z,12.80
2019-05-11T16:24:54.724Z,12.90
2019-05-11T16:27:25.027Z,12.80
2019-05-11T16:29:55.301Z,12.90
2019-05-11T16:32:27.628Z,12.80
2019-05-11T16:34:57.616Z,12.90
2019-05-11T16:37:29.335Z,12.90
2019-05-11T16:39:59.629Z,12.80
2019-05-11T16:42:30.682Z,12.80
2019-05-11T16:45:00.984Z,12.80
2019-05-11T16:47:31.239Z,12.80
2019-05-11T16:50:01.536Z,12.80
2019-05-11T16:52:31.773Z,12.80
2019-05-11T16:55:03.048Z,12.80
2019-05-11T16:57:33.306Z,12.90
2019-05-11T17:00:03.651Z,13.00
2019-05-11T17:02:33.906Z,13.00
2019-05-11T17:05:04.395Z,13.20
2019-05-11T17:07:34.686Z,13.10
2019-05-11T17:10:05.308Z,13.20
2019-05-11T17:12:35.574Z,13.20
2019-05-11T17:15:08.673Z,13.20
2019-05-11T17:17:38.531Z,13.30
2019-05-11T17:20:09.578Z,13.30
2019-05-11T17:22:39.904Z,13.20
2019-05-11T17:25:10.200Z,13.30
2019-05-11T17:27:40.552Z,13.30
2019-05-11T17:30:11.844Z,13.20
2019-05-11T17:32:42.130Z,13.20
2019-05-11T17:35:12.523Z,13.20
2019-05-11T17:37:42.805Z,13.20
2019-05-11T17:40:13.944Z,13.20
2019-05-11T17:42:44.218Z,13.20
2019-05-11T17:45:14.521Z,13.10
2019-05-11T17:47:44.783Z,13.00
2019-05-11T17:50:15.326Z,13.00
2019-05-11T17:52:47.752Z,12.90
2019-05-11T17:55:18.475Z,13.00
2019-05-11T17:57:51.605Z,13.00
2019-05-11T18:00:21.735Z,13.00
2019-05-11T18:02:52.274Z,12.90
2019-05-11T18:05:22.827Z,12.90
2019-05-11T18:07:53.648Z,12.90
2019-05-11T18:10:24.431Z,12.90
2019-05-11T18:12:54.945Z,13.00
2019-05-11T18:15:25.535Z,12.90
2019-05-11T18:17:58.627Z,12.80
2019-05-11T18:20:28.640Z,12.80
2019-05-11T18:22:59.391Z,12.80
2019-05-11T18:25:31.210Z,12.80
2019-05-11T18:28:01.821Z,12.80
2019-05-11T18:30:33.196Z,12.70
2019-05-11T18:33:08.311Z,12.60
2019-05-11T18:35:38.929Z,12.70
2019-05-11T18:38:09.460Z,12.60
2019-05-11T18:40:40.144Z,12.50
2019-05-11T18:43:13.374Z,12.40
2019-05-11T18:45:43.715Z,12.40
2019-05-11T18:48:14.057Z,12.40
2019-05-11T18:50:45.940Z,12.20
2019-05-11T18:53:24.618Z,12.10
2019-05-11T18:56:21.124Z,12.10
2019-05-11T18:58:53.923Z,12.10
2019-05-11T19:01:25.251Z,12.00
2019-05-11T19:03:55.894Z,12.00
2019-05-11T19:06:28.464Z,12.10
2019-05-11T19:08:58.296Z,12.00
2019-05-11T19:11:29.044Z,12.00
2019-05-11T19:13:59.453Z,11.90
2019-05-11T19:16:29.746Z,12.00
2019-05-11T19:19:00.298Z,12.00
2019-05-11T19:21:31.695Z,11.90
2019-05-11T19:24:01.967Z,12.00
2019-05-11T19:26:32.298Z,12.00
2019-05-11T19:29:02.651Z,11.90
2019-05-11T19:31:33.307Z,11.90
2019-05-11T19:34:04.799Z,11.90
2019-05-11T19:36:38.055Z,11.90
2019-05-11T19:39:11.213Z,11.90
2019-05-11T19:41:44.915Z,11.90
2019-05-11T19:44:15.607Z,11.80
2019-05-11T19:46:47.707Z,11.90
2019-05-11T19:49:18.970Z,11.90
2019-05-11T19:51:49.479Z,11.90
2019-05-11T19:54:19.752Z,11.80
2019-05-11T19:56:52.411Z,11.70
2019-05-11T19:59:22.506Z,11.60
2019-05-11T20:01:53.006Z,11.60
2019-05-11T20:04:23.440Z,11.50
2019-05-11T20:07:08.588Z,11.30
2019-05-11T20:09:38.824Z,11.40
2019-05-11T20:12:09.521Z,11.20
2019-05-11T20:14:39.956Z,11.20
2019-05-11T20:17:13.368Z,11.10
2019-05-11T20:19:45.557Z,11.20
2019-05-11T20:22:18.114Z,11.10
2019-05-11T20:24:49.031Z,11.00
2019-05-11T20:27:19.390Z,11.20
2019-05-11T20:29:50.857Z,11.10
2019-05-11T20:32:21.226Z,11.10
2019-05-11T20:34:51.654Z,10.90
2019-05-11T20:37:22.615Z,10.90
2019-05-11T20:39:58.454Z,10.80
2019-05-11T20:42:24.927Z,10.80
2019-05-11T20:44:55.273Z,10.80
2019-05-11T20:47:25.625Z,10.70
2019-05-11T20:49:55.954Z,10.70
2019-05-11T20:52:28.295Z,10.70
2019-05-11T20:54:58.357Z,10.50
2019-05-11T20:57:29.984Z,10.30
2019-05-11T21:00:01.317Z,10.30
2019-05-11T21:02:32.255Z,10.40
2019-05-11T21:05:02.664Z,10.50
2019-05-11T21:07:34.060Z,10.30
2019-05-11T21:10:04.733Z,10.30
2019-05-11T21:12:35.034Z,10.30
2019-05-11T21:15:06.484Z,10.30
2019-05-11T21:17:36.869Z,10.20
2019-05-11T21:20:07.754Z,10.20
2019-05-11T21:22:40.441Z,10.30
2019-05-11T21:25:10.167Z,10.40
2019-05-11T21:27:40.424Z,10.40
2019-05-11T21:30:11.149Z,10.40
2019-05-11T21:32:41.417Z,10.40
2019-05-11T21:35:11.721Z,10.50
2019-05-11T21:37:41.994Z,10.50
2019-05-11T21:40:12.392Z,10.60
2019-05-11T21:42:42.668Z,10.60
2019-05-11T21:45:12.976Z,10.80
2019-05-11T21:47:43.269Z,10.80
2019-05-11T21:50:13.572Z,10.80
2019-05-11T21:52:43.844Z,10.90
